Time;durP1;ratioP1;P1;durP2;ratioP2;P2;SDS_P1;SDS_P2;PMS_P1;PMS_P2;Temp;Humidity;BMP_temperature;BMP_pressure;BME280_temperature;BME280_humidity;BME280_pressure;Samples;Min_cycle;Max_cycle;Signal;HPM_P1;HPM_P2
2021/06/21 00:01:10;;;;;;;;;;;;;;;;;;;;;
2021/06/21 00:06:56;;;;;;;3.67;2.30;;;18.10;99.90;;;;;;5819565;24;20431;-86
2021/06/21 00:09:28;;;;;;;4.30;2.60;;;18.20;99.90;;;;;;5864127;24;20450;-85
2021/06/21 00:11:56;;;;;;;7.27;2.27;;;18.20;99.90;;;;;;6078485;23;20458;-85
2021/06/21 00:14:35;;;;;;;;;;;;;;;;;;;;;
2021/06/21 00:18:04;;;;;;;;;;;;;;;;;;;;;
2021/06/21 00:21:12;;;;;;;;;;;;;;;;;;;;;
2021/06/21 00:24:19;;;;;;;;;;;;;;;;;;;;;
2021/06/21 00:26:52;;;;;;;3.00;1.80;;;18.40;99.90;;;;;;6027691;23;20437;-85
2021/06/21 00:59:13;;;;;;;;;;;;;;;;;;;;;
2021/06/21 01:02:22;;;;;;;;;;;;;;;;;;;;;
2021/06/21 01:05:20;;;;;;;6.27;2.50;;;18.10;99.90;;;;;;6009379;23;21013;-86
2021/06/21 01:08:09;;;;;;;4.17;2.43;;;18.10;99.90;;;;;;6037981;23;20814;-86
2021/06/21 01:11:34;;;;;;;4.63;1.97;;;18.20;99.90;;;;;;6037583;23;20441;-86
2021/06/21 01:14:14;;;;;;;5.27;3.60;;;18.10;99.90;;;;;;5938126;23;20436;-85
2021/06/21 01:17:08;;;;;;;5.17;1.80;;;18.10;99.90;;;;;;6156413;23;20406;-85
2021/06/21 01:20:20;;;;;;;4.70;2.37;;;18.10;99.90;;;;;;6156825;23;20790;-86
2021/06/21 01:23:18;;;;;;;3.30;2.00;;;18.10;99.90;;;;;;6029430;23;20508;-86
2021/06/21 01:32:18;;;;;;;4.27;2.40;;;18.10;99.90;;;;;;5951526;24;20520;-86
2021/06/21 01:38:46;;;;;;;7.30;2.10;;;18.10;99.90;;;;;;5921969;23;20404;-86
2021/06/21 01:41:52;;;;;;;3.10;2.60;;;18.10;99.90;;;;;;6156267;23;20492;-86
2021/06/21 01:44:35;;;;;;;3.83;1.83;;;18.10;99.90;;;;;;6156872;23;20443;-86
2021/06/21 01:50:33;;;;;;;3.57;2.30;;;18.10;99.90;;;;;;6123862;23;20449;-86
2021/06/21 01:56:27;;;;;;;4.50;2.97;;;18.20;99.90;;;;;;6039958;23;20471;-87
2021/06/21 02:33:19;;;;;;;4.10;2.23;;;17.90;99.90;;;;;;5852696;24;20244;-86
2021/06/21 06:20:22;;;;;;;3.80;2.10;;;19.20;99.90;;;;;;5934208;24;20207;-84
2021/06/21 06:23:06;;;;;;;6.07;2.53;;;19.30;99.90;;;;;;5966526;24;20412;-84
2021/06/21 06:25:51;;;;;;;3.67;2.30;;;19.30;99.90;;;;;;6074689;23;20909;-82
2021/06/21 06:28:49;;;;;;;2.00;1.60;;;19.40;99.90;;;;;;6196476;23;20405;-85
2021/06/21 06:34:16;;;;;;;3.13;2.23;;;19.60;99.90;;;;;;6179008;23;20421;-86
2021/06/21 06:37:01;;;;;;;3.37;2.13;;;19.60;99.90;;;;;;6189652;23;20393;-84
2021/06/21 06:39:44;;;;;;;4.80;3.10;;;19.60;99.90;;;;;;6187693;23;20903;-85
2021/06/21 06:45:27;;;;;;;6.27;2.60;;;19.70;99.90;;;;;;6138280;23;20728;-83
2021/06/21 06:51:00;;;;;;;2.70;1.67;;;19.90;99.90;;;;;;6184877;23;20438;-85
2021/06/21 06:53:37;;;;;;;5.33;2.50;;;20.00;99.90;;;;;;6187512;23;20445;-84
2021/06/21 06:59:01;;;;;;;4.33;2.60;;;20.10;99.90;;;;;;6186017;23;20457;-86
2021/06/21 07:01:34;;;;;;;4.40;2.70;;;20.20;99.90;;;;;;6185569;23;20509;-85
2021/06/21 07:48:51;;;;;;;2.70;1.93;;;21.70;99.90;;;;;;6143569;23;20508;-84
2021/06/21 09:18:27;;;;;;;3.20;1.60;;;23.00;99.90;;;;;;6133243;23;20453;-85
2021/06/21 09:21:22;;;;;;;1.63;1.53;;;23.00;99.90;;;;;;6156771;23;20437;-84
2021/06/21 09:23:53;;;;;;;4.30;2.43;;;23.10;99.90;;;;;;6169894;23;20410;-84
2021/06/21 09:26:55;;;;;;;1.93;1.70;;;23.20;99.90;;;;;;6167542;23;20921;-85
2021/06/21 09:43:31;;;;;;;2.30;2.07;;;23.50;99.90;;;;;;5725856;23;20404;-85
2021/06/21 09:46:23;;;;;;;2.70;1.67;;;23.60;99.90;;;;;;6046830;23;20405;-84
2021/06/21 09:48:55;;;;;;;4.90;1.80;;;23.70;99.90;;;;;;6163613;23;20450;-84
2021/06/21 09:51:34;;;;;;;4.83;2.23;;;23.80;99.90;;;;;;6164032;23;20505;-83
2021/06/21 09:54:12;;;;;;;2.77;1.87;;;23.80;99.90;;;;;;6163270;23;20398;-82
2021/06/21 10:17:42;;;;;;;3.60;2.30;;;24.60;99.90;;;;;;5913858;23;20424;-85
2021/06/21 10:20:39;;;;;;;1.67;1.40;;;24.50;98.70;;;;;;6050779;23;20434;-83
2021/06/21 10:26:55;;;;;;;2.03;1.93;;;24.60;98.60;;;;;;5914557;24;20425;-84
2021/06/21 10:39:40;;;;;;;1.63;1.50;;;25.20;99.90;;;;;;5926164;24;20834;-83
2021/06/21 13:55:41;;;;;;;2.50;2.27;;;36.70;44.20;;;;;;5983512;24;20428;-85
2021/06/21 13:58:10;;;;;;;3.27;2.17;;;36.30;45.40;;;;;;6020423;23;20916;-85
2021/06/21 14:00:49;;;;;;;2.30;1.90;;;36.10;44.40;;;;;;6159671;23;20437;-86
2021/06/21 14:10:04;;;;;;;3.23;2.10;;;36.40;46.30;;;;;;5935421;24;20413;-85
2021/06/21 14:12:32;;;;;;;2.80;2.30;;;36.90;45.70;;;;;;6008471;23;20490;-85
2021/06/21 14:15:02;;;;;;;2.90;2.27;;;36.70;46.40;;;;;;6125700;23;20421;-85
2021/06/21 14:17:32;;;;;;;2.40;1.90;;;37.20;46.00;;;;;;6159701;23;20786;-86
2021/06/21 14:36:23;;;;;;;1.80;1.70;;;39.10;43.00;;;;;;5872120;24;20420;-86
2021/06/21 14:39:06;;;;;;;2.93;2.67;;;38.90;42.00;;;;;;5980047;24;20412;-86
2021/06/21 14:41:35;;;;;;;3.03;1.80;;;38.70;41.70;;;;;;5982147;23;20464;-86
2021/06/21 14:44:07;;;;;;;4.07;2.40;;;38.70;42.60;;;;;;6060454;23;20476;-86
2021/06/21 14:46:50;;;;;;;1.90;1.80;;;38.50;41.40;;;;;;6157783;23;20430;-86
2021/06/21 14:49:18;;;;;;;2.57;2.07;;;38.10;42.80;;;;;;6156937;23;20391;-85
2021/06/21 14:51:56;;;;;;;4.17;2.00;;;37.50;42.30;;;;;;6156829;23;20494;-85
2021/06/21 14:54:26;;;;;;;2.47;1.90;;;36.40;43.30;;;;;;6156781;23;20442;-85
2021/06/21 14:57:03;;;;;;;2.70;2.00;;;35.40;45.30;;;;;;6157554;23;20434;-85
2021/06/21 14:59:30;;;;;;;3.77;1.67;;;34.70;45.90;;;;;;6163737;23;20455;-85
2021/06/21 15:01:58;;;;;;;4.70;2.40;;;34.20;46.80;;;;;;6168750;23;20462;-85
2021/06/21 15:04:29;;;;;;;2.23;1.90;;;33.60;48.50;;;;;;6157620;23;20412;-86
2021/06/21 15:06:58;;;;;;;3.50;2.50;;;33.60;49.20;;;;;;6157407;23;20403;-85
2021/06/21 15:09:31;;;;;;;2.03;1.50;;;33.40;48.90;;;;;;6157875;23;20417;-85
2021/06/21 15:11:58;;;;;;;3.00;2.47;;;32.80;50.40;;;;;;6157576;23;20439;-85
2021/06/21 15:14:25;;;;;;;2.73;1.60;;;32.00;50.70;;;;;;6158711;23;20459;-85
2021/06/21 15:16:52;;;;;;;3.43;2.20;;;31.00;52.30;;;;;;6157758;23;20404;-85
2021/06/21 15:19:20;;;;;;;2.40;2.20;;;30.60;54.00;;;;;;6158785;23;20903;-85
2021/06/21 15:21:48;;;;;;;3.47;2.23;;;30.00;55.00;;;;;;6158795;23;20445;-85
2021/06/21 15:24:15;;;;;;;5.47;2.30;;;29.50;56.80;;;;;;6159424;23;20393;-85
2021/06/21 15:26:48;;;;;;;2.57;2.07;;;29.80;57.00;;;;;;6159435;23;20415;-85
2021/06/21 16:42:13;;;;;;;;;;;;;;;;;;;;;
2021/06/21 16:48:10;;;;;;;2.43;2.23;;;27.70;61.00;;;;;;5876163;24;20440;-85
2021/06/21 16:50:46;;;;;;;2.00;1.90;;;27.40;62.40;;;;;;5991806;23;20445;-85
2021/06/21 16:53:13;;;;;;;2.40;2.20;;;27.20;63.70;;;;;;6109133;23;20517;-84
2021/06/21 16:55:55;;;;;;;;;;;;;;;;;;;;;
2021/06/21 17:01:43;;;;;;;2.60;2.47;;;26.70;66.20;;;;;;5946004;24;20450;-87
2021/06/21 17:04:16;;;;;;;2.80;2.10;;;26.30;67.50;;;;;;5959033;24;20406;-85
2021/06/21 17:06:45;;;;;;;2.40;2.20;;;26.10;68.40;;;;;;6039624;23;20525;-86
2021/06/21 17:09:14;;;;;;;2.50;2.30;;;26.00;69.60;;;;;;6102655;23;20420;-85
2021/06/21 17:11:41;;;;;;;2.43;2.23;;;25.80;70.20;;;;;;6163240;23;20443;-85
2021/06/21 17:14:10;;;;;;;3.40;2.80;;;25.60;70.90;;;;;;6166983;23;20453;-86
2021/06/21 17:16:37;;;;;;;1.90;1.80;;;25.50;71.90;;;;;;6166478;23;20412;-86
2021/06/21 17:19:04;;;;;;;2.97;2.10;;;25.50;72.10;;;;;;6166554;23;20412;-84
2021/06/21 17:21:32;;;;;;;3.57;2.63;;;25.40;72.80;;;;;;6162569;23;20504;-85
2021/06/21 17:23:59;;;;;;;2.73;2.57;;;25.30;73.20;;;;;;6162981;23;20515;-85
2021/06/21 17:26:26;;;;;;;3.03;2.73;;;25.30;71.50;;;;;;6164070;23;20406;-84
2021/06/21 17:28:54;;;;;;;2.30;2.10;;;25.20;72.10;;;;;;6164463;23;20423;-85
2021/06/21 17:31:21;;;;;;;2.17;1.97;;;25.20;71.80;;;;;;6163083;23;20490;-82
2021/06/21 17:33:52;;;;;;;3.13;2.50;;;25.10;72.60;;;;;;6162135;23;20453;-85
2021/06/21 17:51:23;;;;;;;;;;;;;;;;;;;;;
2021/06/21 18:01:05;;;;;;;3.77;2.67;;;24.70;75.90;;;;;;5979444;23;20440;-83
2021/06/21 18:03:39;;;;;;;2.80;2.60;;;24.60;77.10;;;;;;5818369;24;21057;-83
2021/06/21 18:06:21;;;;;;;;;;;;;;;;;;;;;
2021/06/21 18:09:05;;;;;;;2.97;2.77;;;24.40;77.20;;;;;;6120284;23;20490;-83
2021/06/21 18:12:00;;;;;;;;;;;;;;;;;;;;;
2021/06/21 18:14:27;;;;;;;3.10;2.90;;;24.30;77.70;;;;;;6148305;23;20541;-80
2021/06/21 18:16:55;;;;;;;3.00;2.80;;;24.20;78.90;;;;;;6159724;23;20408;-81
2021/06/21 18:19:22;;;;;;;2.93;2.70;;;24.10;79.80;;;;;;6159766;23;20518;-81
2021/06/21 18:21:48;;;;;;;2.90;2.80;;;24.00;80.00;;;;;;6159877;23;20431;-81
2021/06/21 18:24:15;;;;;;;4.30;3.10;;;23.90;80.40;;;;;;6159988;23;20736;-81
2021/06/21 18:26:42;;;;;;;3.20;3.00;;;23.70;80.50;;;;;;6161304;23;20497;-81
2021/06/21 18:29:09;;;;;;;2.20;2.10;;;23.80;81.20;;;;;;6160021;23;20434;-82
2021/06/21 18:31:35;;;;;;;2.83;2.60;;;23.80;83.10;;;;;;6160752;23;20437;-81
2021/06/21 18:34:04;;;;;;;5.00;2.40;;;23.70;85.70;;;;;;6160423;23;20782;-81
2021/06/21 18:36:31;;;;;;;4.80;3.00;;;23.50;87.70;;;;;;6160181;23;20421;-81
2021/06/21 18:38:58;;;;;;;2.63;2.43;;;23.50;91.40;;;;;;6158321;23;20414;-83
2021/06/21 18:41:25;;;;;;;5.00;4.10;;;23.30;94.50;;;;;;6161925;23;20430;-82
2021/06/21 18:43:52;;;;;;;3.87;3.57;;;23.30;96.90;;;;;;6161033;23;20406;-82
2021/06/21 18:46:22;;;;;;;7.50;4.90;;;23.40;99.90;;;;;;6160328;23;20424;-82
2021/06/21 18:48:49;;;;;;;3.47;3.27;;;23.30;99.90;;;;;;6160098;23;20480;-82
2021/06/21 18:51:17;;;;;;;4.00;3.70;;;23.20;99.90;;;;;;6161524;23;20430;-82
2021/06/21 18:53:44;;;;;;;5.33;4.60;;;23.10;99.90;;;;;;6160132;23;20445;-82
2021/06/21 18:56:11;;;;;;;5.30;3.87;;;23.00;99.90;;;;;;6158333;23;20426;-82
2021/06/21 18:58:38;;;;;;;4.43;4.10;;;22.90;99.90;;;;;;6161299;23;20476;-82
2021/06/21 19:01:05;;;;;;;5.23;3.40;;;22.80;99.90;;;;;;6170912;23;20437;-81
2021/06/21 19:03:32;;;;;;;4.83;4.23;;;22.60;99.90;;;;;;6168770;23;20421;-82
2021/06/21 19:05:59;;;;;;;4.70;4.30;;;22.50;99.90;;;;;;6160955;23;20448;-82
2021/06/21 19:08:29;;;;;;;4.60;3.80;;;22.40;99.90;;;;;;6161246;23;20414;-82
2021/06/21 19:10:56;;;;;;;3.97;3.67;;;22.20;99.90;;;;;;6161288;23;20421;-83
2021/06/21 19:13:22;;;;;;;4.60;4.20;;;22.10;99.90;;;;;;6161348;23;20463;-83
2021/06/21 19:23:00;;;;;;;6.80;4.67;;;21.40;99.90;;;;;;6121211;23;20416;-87
2021/06/21 19:26:00;;;;;;;6.00;4.70;;;21.10;99.90;;;;;;6165467;23;20416;-87
2021/06/21 19:34:28;;;;;;;;;;;;;;;;;;;;;
2021/06/21 19:37:15;;;;;;;7.03;5.90;;;20.60;99.90;;;;;;6158977;23;20918;-87
2021/06/21 19:46:30;;;;;;;8.90;7.27;;;20.50;99.90;;;;;;5959277;23;20411;-85
2021/06/21 20:21:13;;;;;;;7.30;6.67;;;20.30;99.90;;;;;;5866364;23;20442;-83
2021/06/21 20:23:40;;;;;;;7.87;6.10;;;20.20;99.90;;;;;;6087174;23;20518;-84
2021/06/21 20:26:09;;;;;;;7.20;6.60;;;20.10;99.90;;;;;;6132772;23;20404;-83
2021/06/21 20:28:35;;;;;;;8.00;7.40;;;20.00;99.90;;;;;;6133276;23;20914;-83
2021/06/21 20:31:02;;;;;;;7.23;6.63;;;19.90;99.90;;;;;;6134014;23;21002;-83
2021/06/21 20:33:39;;;;;;;8.40;7.70;;;19.90;99.90;;;;;;6133119;23;20416;-83
2021/06/21 20:36:07;;;;;;;8.07;7.27;;;19.90;99.90;;;;;;6132862;23;20431;-82
2021/06/21 20:38:35;;;;;;;7.43;6.83;;;19.90;99.90;;;;;;6133043;23;20423;-83
2021/06/21 20:41:02;;;;;;;8.10;7.33;;;20.00;99.90;;;;;;6133420;23;20431;-84
2021/06/21 20:43:30;;;;;;;7.80;7.17;;;20.00;99.90;;;;;;6135505;23;20443;-82
2021/06/21 20:45:57;;;;;;;7.77;7.10;;;20.00;99.90;;;;;;6137143;23;20470;-83
2021/06/21 20:48:24;;;;;;;8.47;7.60;;;20.00;99.90;;;;;;6137383;23;20413;-83
2021/06/21 20:50:51;;;;;;;9.03;8.13;;;19.90;99.90;;;;;;6136645;23;20435;-83
2021/06/21 20:53:18;;;;;;;9.87;8.97;;;19.90;99.90;;;;;;6136920;23;20421;-84
2021/06/21 20:55:46;;;;;;;17.43;8.60;;;19.90;99.90;;;;;;6141942;23;20966;-83
2021/06/21 20:58:13;;;;;;;9.97;9.07;;;19.90;99.90;;;;;;6165567;23;20410;-83
2021/06/21 21:00:42;;;;;;;10.20;9.40;;;19.80;99.90;;;;;;6165982;23;20466;-83
2021/06/21 21:03:09;;;;;;;9.50;8.73;;;19.90;99.90;;;;;;6165421;23;20413;-83
2021/06/21 21:05:37;;;;;;;7.33;6.70;;;19.90;99.90;;;;;;6164675;23;20478;-82
2021/06/21 21:08:04;;;;;;;7.30;6.70;;;19.70;99.90;;;;;;6164913;23;20406;-83
2021/06/21 21:10:33;;;;;;;6.37;5.87;;;19.50;99.90;;;;;;6162779;23;20431;-83
2021/06/21 21:13:01;;;;;;;7.63;6.93;;;19.40;99.90;;;;;;6163319;23;20417;-85
2021/06/21 21:15:28;;;;;;;6.77;5.00;;;19.30;99.90;;;;;;6162167;23;20965;-83
2021/06/21 21:17:55;;;;;;;6.83;6.33;;;19.20;99.90;;;;;;6163847;23;20411;-83
2021/06/21 21:20:22;;;;;;;6.30;5.83;;;19.10;99.90;;;;;;6164080;23;20437;-83
2021/06/21 21:22:49;;;;;;;6.53;5.93;;;19.20;99.90;;;;;;6163495;23;20410;-82
2021/06/21 21:25:21;;;;;;;5.90;5.47;;;19.20;99.90;;;;;;6163415;23;20410;-85
2021/06/21 21:27:48;;;;;;;5.30;4.90;;;19.20;99.90;;;;;;6163915;23;20456;-82
2021/06/21 21:30:17;;;;;;;6.60;6.00;;;19.20;99.90;;;;;;6163758;23;20437;-83
2021/06/21 21:32:44;;;;;;;5.67;5.27;;;19.30;99.90;;;;;;6163858;23;20426;-87
2021/06/21 21:35:13;;;;;;;6.77;5.70;;;19.30;99.90;;;;;;6164358;23;20776;-83
2021/06/21 21:37:41;;;;;;;6.00;5.47;;;19.30;99.90;;;;;;6161799;23;20421;-83
2021/06/21 21:40:10;;;;;;;6.10;5.70;;;19.40;99.90;;;;;;6162070;23;20493;-83
2021/06/21 21:42:39;;;;;;;6.50;6.10;;;19.40;99.90;;;;;;6160773;23;20417;-83
2021/06/21 21:45:08;;;;;;;6.67;6.13;;;19.40;99.90;;;;;;6162386;23;20521;-83
2021/06/21 21:47:38;;;;;;;6.90;6.40;;;19.30;99.90;;;;;;6161452;23;20414;-83
2021/06/21 21:50:08;;;;;;;7.73;7.13;;;19.30;99.90;;;;;;6160944;23;20918;-83
2021/06/21 21:52:41;;;;;;;5.90;5.40;;;19.30;99.90;;;;;;6160858;23;20410;-83
2021/06/21 21:55:22;;;;;;;6.33;5.83;;;19.30;99.90;;;;;;6163283;23;20478;-83
2021/06/21 21:57:49;;;;;;;6.10;5.60;;;19.20;99.90;;;;;;6133732;23;20434;-83
2021/06/21 22:00:17;;;;;;;5.40;5.00;;;19.20;99.90;;;;;;6133471;23;20437;-83
2021/06/21 22:02:45;;;;;;;6.97;6.37;;;19.20;99.90;;;;;;6134910;23;20399;-83
2021/06/21 22:05:12;;;;;;;6.37;5.40;;;19.20;99.90;;;;;;6132966;23;20499;-82
2021/06/21 22:07:39;;;;;;;7.67;7.07;;;19.10;99.90;;;;;;6140472;23;20415;-81
2021/06/21 22:10:08;;;;;;;6.53;6.13;;;19.10;99.90;;;;;;6142796;23;20469;-80
2021/06/21 22:12:34;;;;;;;6.47;6.07;;;19.10;99.90;;;;;;6135675;23;20418;-80
2021/06/21 22:15:01;;;;;;;6.23;5.73;;;19.10;99.90;;;;;;6133356;23;20419;-82
2021/06/21 22:17:28;;;;;;;6.97;6.47;;;19.10;99.90;;;;;;6133619;23;20414;-82
2021/06/21 22:19:56;;;;;;;6.53;6.00;;;19.10;99.90;;;;;;6133236;23;20415;-82
2021/06/21 22:22:22;;;;;;;8.93;7.93;;;19.10;99.90;;;;;;6133001;23;20486;-81
2021/06/21 22:24:49;;;;;;;7.67;7.07;;;19.10;99.90;;;;;;6132464;23;20474;-82
2021/06/21 22:27:16;;;;;;;7.73;7.23;;;19.10;99.90;;;;;;6133276;23;20426;-82
2021/06/21 22:29:44;;;;;;;9.13;8.43;;;19.10;99.90;;;;;;6132972;23;20413;-81
2021/06/21 22:32:11;;;;;;;8.67;7.77;;;19.10;99.90;;;;;;6133348;23;20772;-82
2021/06/21 22:34:38;;;;;;;8.10;6.57;;;19.10;99.90;;;;;;6132629;23;20415;-83
2021/06/21 22:37:06;;;;;;;7.57;6.87;;;19.20;99.90;;;;;;6133022;23;20415;-83
2021/06/21 22:39:32;;;;;;;7.40;6.70;;;19.20;99.90;;;;;;6132722;23;20434;-83
2021/06/21 22:41:59;;;;;;;7.10;6.50;;;19.20;99.90;;;;;;6133728;23;20430;-83
2021/06/21 22:44:26;;;;;;;6.43;5.93;;;19.20;99.90;;;;;;6134261;23;20399;-83
2021/06/21 22:46:52;;;;;;;6.40;5.90;;;19.30;99.90;;;;;;6134037;23;20414;-83
2021/06/21 22:49:19;;;;;;;9.47;7.07;;;19.30;99.90;;;;;;6133421;23;20419;-83
2021/06/21 22:51:46;;;;;;;7.67;7.07;;;19.30;99.90;;;;;;6133161;23;20938;-82
2021/06/21 22:54:14;;;;;;;6.77;6.37;;;19.30;99.90;;;;;;6133026;23;20423;-83
2021/06/21 22:56:41;;;;;;;7.03;6.33;;;19.30;99.90;;;;;;6149706;23;20410;-83
2021/06/21 22:59:08;;;;;;;8.53;7.70;;;19.40;99.90;;;;;;6162082;23;20415;-83
2021/06/21 23:01:35;;;;;;;7.20;6.70;;;19.40;99.90;;;;;;6161516;23;20434;-83
2021/06/21 23:04:02;;;;;;;7.40;6.80;;;19.40;99.90;;;;;;6162467;23;20418;-83
2021/06/21 23:06:29;;;;;;;8.80;7.03;;;19.40;99.90;;;;;;6162310;23;20442;-83
2021/06/21 23:08:56;;;;;;;6.90;6.40;;;19.40;99.90;;;;;;6162231;23;20428;-83
2021/06/21 23:11:24;;;;;;;6.53;6.13;;;19.50;99.90;;;;;;6161672;23;20758;-83
2021/06/21 23:13:51;;;;;;;7.73;7.13;;;19.50;99.90;;;;;;6162450;23;20417;-83
2021/06/21 23:16:18;;;;;;;7.97;7.37;;;19.50;99.90;;;;;;6163516;23;20415;-82
2021/06/21 23:18:45;;;;;;;7.87;7.27;;;19.50;99.90;;;;;;6161974;23;20410;-83
2021/06/21 23:21:12;;;;;;;8.20;7.60;;;19.50;99.90;;;;;;6162212;23;20431;-82
2021/06/21 23:23:39;;;;;;;8.07;7.37;;;19.50;99.90;;;;;;6161694;23;20407;-83
2021/06/21 23:26:05;;;;;;;8.00;7.17;;;19.50;99.90;;;;;;6161305;23;20442;-83
2021/06/21 23:28:34;;;;;;;8.57;7.20;;;19.50;99.90;;;;;;6161711;23;20416;-83
2021/06/21 23:31:00;;;;;;;7.30;6.77;;;19.50;99.90;;;;;;6161619;23;20746;-83
2021/06/21 23:33:27;;;;;;;8.27;7.57;;;19.50;99.90;;;;;;6162224;23;20414;-83
2021/06/21 23:35:54;;;;;;;7.20;6.50;;;19.50;99.90;;;;;;6162753;23;20416;-83
2021/06/21 23:38:21;;;;;;;7.13;6.53;;;19.50;99.90;;;;;;6161757;23;20851;-83
2021/06/21 23:40:49;;;;;;;7.03;6.43;;;19.50;99.90;;;;;;6161836;23;20506;-83
2021/06/21 23:43:17;;;;;;;7.07;6.40;;;19.50;99.90;;;;;;6161018;23;20429;-83
2021/06/21 23:45:46;;;;;;;6.80;6.37;;;19.50;99.90;;;;;;6161347;23;20452;-83
2021/06/21 23:48:14;;;;;;;6.77;6.30;;;19.50;99.90;;;;;;6161913;23;20411;-83
2021/06/21 23:50:42;;;;;;;7.03;6.63;;;19.50;99.90;;;;;;6160984;23;20444;-82
2021/06/21 23:53:10;;;;;;;7.60;7.10;;;19.50;99.90;;;;;;6160951;23;20411;-83
2021/06/21 23:55:37;;;;;;;7.77;7.23;;;19.50;99.90;;;;;;6160705;23;20429;-83
2021/06/21 23:58:04;;;;;;;6.20;5.80;;;19.50;99.90;;;;;;6160274;23;20423;-83
